sensor_id;sensor_type;location;lat;lon;timestamp;P1;durP1;ratioP1;P2;durP2;ratioP2
21018;SDS011;10667;51.056;3.732;2023-05-20T00:00:49;14.13;;;9.13;;
21018;SDS011;10667;51.056;3.732;2023-05-20T00:03:15;18.77;;;9.00;;
21018;SDS011;10667;51.056;3.732;2023-05-20T00:05:41;19.05;;;8.70;;
21018;SDS011;10667;51.056;3.732;2023-05-20T00:08:07;13.38;;;8.13;;
21018;SDS011;10667;51.056;3.732;2023-05-20T00:10:36;21.38;;;9.05;;
21018;SDS011;10667;51.056;3.732;2023-05-20T00:13:02;16.63;;;8.20;;
21018;SDS011;10667;51.056;3.732;2023-05-20T00:15:28;17.33;;;8.98;;
21018;SDS011;10667;51.056;3.732;2023-05-20T00:17:54;16.00;;;7.93;;
21018;SDS011;10667;51.056;3.732;2023-05-20T00:20:21;17.42;;;8.10;;
21018;SDS011;10667;51.056;3.732;2023-05-20T00:22:47;18.27;;;8.10;;
21018;SDS011;10667;51.056;3.732;2023-05-20T00:25:13;18.25;;;8.00;;
21018;SDS011;10667;51.056;3.732;2023-05-20T00:27:39;16.45;;;8.10;;
21018;SDS011;10667;51.056;3.732;2023-05-20T00:30:05;15.75;;;7.65;;
21018;SDS011;10667;51.056;3.732;2023-05-20T00:32:32;16.27;;;7.90;;
21018;SDS011;10667;51.056;3.732;2023-05-20T00:34:58;19.08;;;7.80;;
21018;SDS011;10667;51.056;3.732;2023-05-20T00:37:26;10.68;;;7.05;;
21018;SDS011;10667;51.056;3.732;2023-05-20T00:39:51;13.48;;;8.27;;
21018;SDS011;10667;51.056;3.732;2023-05-20T00:42:21;16.80;;;6.97;;
21018;SDS011;10667;51.056;3.732;2023-05-20T00:44:47;16.17;;;7.57;;
21018;SDS011;10667;51.056;3.732;2023-05-20T00:47:20;14.10;;;7.20;;
21018;SDS011;10667;51.056;3.732;2023-05-20T00:49:50;13.15;;;6.70;;
21018;SDS011;10667;51.056;3.732;2023-05-20T00:52:17;16.17;;;7.18;;
21018;SDS011;10667;51.056;3.732;2023-05-20T00:54:43;17.85;;;7.07;;
21018;SDS011;10667;51.056;3.732;2023-05-20T00:57:10;14.98;;;7.30;;
21018;SDS011;10667;51.056;3.732;2023-05-20T00:59:36;11.07;;;6.57;;
21018;SDS011;10667;51.056;3.732;2023-05-20T01:02:03;12.80;;;7.35;;
21018;SDS011;10667;51.056;3.732;2023-05-20T01:04:29;15.82;;;7.45;;
21018;SDS011;10667;51.056;3.732;2023-05-20T01:06:55;12.95;;;6.35;;
21018;SDS011;10667;51.056;3.732;2023-05-20T01:09:23;13.20;;;7.50;;
21018;SDS011;10667;51.056;3.732;2023-05-20T01:11:51;11.35;;;6.47;;
21018;SDS011;10667;51.056;3.732;2023-05-20T01:14:24;11.00;;;6.32;;
21018;SDS011;10667;51.056;3.732;2023-05-20T01:16:53;16.58;;;7.00;;
21018;SDS011;10667;51.056;3.732;2023-05-20T01:19:35;11.98;;;6.55;;
21018;SDS011;10667;51.056;3.732;2023-05-20T01:22:05;10.93;;;6.38;;
21018;SDS011;10667;51.056;3.732;2023-05-20T01:24:32;16.35;;;6.93;;
21018;SDS011;10667;51.056;3.732;2023-05-20T01:26:58;11.52;;;6.35;;
21018;SDS011;10667;51.056;3.732;2023-05-20T01:29:24;11.27;;;6.78;;
21018;SDS011;10667;51.056;3.732;2023-05-20T01:31:50;13.07;;;6.88;;
21018;SDS011;10667;51.056;3.732;2023-05-20T01:34:18;14.10;;;6.72;;
21018;SDS011;10667;51.056;3.732;2023-05-20T01:36:44;12.90;;;6.55;;
21018;SDS011;10667;51.056;3.732;2023-05-20T01:39:11;11.27;;;6.07;;
21018;SDS011;10667;51.056;3.732;2023-05-20T01:41:37;13.02;;;6.50;;
21018;SDS011;10667;51.056;3.732;2023-05-20T01:44:04;10.20;;;6.32;;
21018;SDS011;10667;51.056;3.732;2023-05-20T01:46:33;15.93;;;6.95;;
21018;SDS011;10667;51.056;3.732;2023-05-20T01:48:59;8.20;;;5.68;;
21018;SDS011;10667;51.056;3.732;2023-05-20T01:51:25;10.07;;;6.53;;
21018;SDS011;10667;51.056;3.732;2023-05-20T01:53:51;14.82;;;6.35;;
21018;SDS011;10667;51.056;3.732;2023-05-20T01:56:17;11.57;;;6.90;;
21018;SDS011;10667;51.056;3.732;2023-05-20T01:58:43;9.00;;;5.40;;
21018;SDS011;10667;51.056;3.732;2023-05-20T02:01:08;9.75;;;6.07;;
21018;SDS011;10667;51.056;3.732;2023-05-20T02:03:34;10.43;;;6.28;;
21018;SDS011;10667;51.056;3.732;2023-05-20T02:06:00;9.05;;;5.60;;
21018;SDS011;10667;51.056;3.732;2023-05-20T02:08:25;10.95;;;5.50;;
21018;SDS011;10667;51.056;3.732;2023-05-20T02:10:51;13.98;;;5.90;;
21018;SDS011;10667;51.056;3.732;2023-05-20T02:13:16;16.38;;;6.80;;
21018;SDS011;10667;51.056;3.732;2023-05-20T02:15:42;12.73;;;6.50;;
21018;SDS011;10667;51.056;3.732;2023-05-20T02:18:08;10.90;;;5.63;;
21018;SDS011;10667;51.056;3.732;2023-05-20T02:20:36;11.60;;;6.07;;
21018;SDS011;10667;51.056;3.732;2023-05-20T02:23:02;8.60;;;5.70;;
21018;SDS011;10667;51.056;3.732;2023-05-20T02:25:31;9.88;;;5.60;;
21018;SDS011;10667;51.056;3.732;2023-05-20T02:27:56;9.05;;;5.60;;
21018;SDS011;10667;51.056;3.732;2023-05-20T02:30:22;13.27;;;6.85;;
21018;SDS011;10667;51.056;3.732;2023-05-20T02:32:48;14.10;;;5.97;;
21018;SDS011;10667;51.056;3.732;2023-05-20T02:35:13;13.77;;;6.65;;
21018;SDS011;10667;51.056;3.732;2023-05-20T02:37:40;11.38;;;6.40;;
21018;SDS011;10667;51.056;3.732;2023-05-20T02:40:08;13.90;;;6.28;;
21018;SDS011;10667;51.056;3.732;2023-05-20T02:42:34;12.80;;;5.93;;
21018;SDS011;10667;51.056;3.732;2023-05-20T02:45:00;11.95;;;6.63;;
21018;SDS011;10667;51.056;3.732;2023-05-20T02:47:26;12.65;;;6.20;;
21018;SDS011;10667;51.056;3.732;2023-05-20T02:49:51;9.65;;;5.82;;
21018;SDS011;10667;51.056;3.732;2023-05-20T02:52:17;15.80;;;6.38;;
21018;SDS011;10667;51.056;3.732;2023-05-20T02:54:42;9.55;;;6.07;;
21018;SDS011;10667;51.056;3.732;2023-05-20T02:57:08;11.02;;;6.07;;
21018;SDS011;10667;51.056;3.732;2023-05-20T02:59:34;11.38;;;5.57;;
21018;SDS011;10667;51.056;3.732;2023-05-20T03:01:59;10.07;;;6.00;;
21018;SDS011;10667;51.056;3.732;2023-05-20T03:04:25;10.70;;;6.05;;
21018;SDS011;10667;51.056;3.732;2023-05-20T03:06:51;15.57;;;5.80;;
21018;SDS011;10667;51.056;3.732;2023-05-20T03:09:17;13.48;;;5.72;;
21018;SDS011;10667;51.056;3.732;2023-05-20T03:11:43;10.77;;;5.97;;
21018;SDS011;10667;51.056;3.732;2023-05-20T03:14:11;9.90;;;5.85;;
21018;SDS011;10667;51.056;3.732;2023-05-20T03:16:37;13.90;;;6.82;;
21018;SDS011;10667;51.056;3.732;2023-05-20T03:19:04;9.65;;;5.72;;
21018;SDS011;10667;51.056;3.732;2023-05-20T03:21:29;11.68;;;5.93;;
21018;SDS011;10667;51.056;3.732;2023-05-20T03:23:56;10.60;;;5.97;;
21018;SDS011;10667;51.056;3.732;2023-05-20T03:26:21;9.63;;;5.80;;
21018;SDS011;10667;51.056;3.732;2023-05-20T03:28:47;10.27;;;6.22;;
21018;SDS011;10667;51.056;3.732;2023-05-20T03:31:13;11.10;;;6.05;;
21018;SDS011;10667;51.056;3.732;2023-05-20T03:33:38;11.02;;;6.15;;
21018;SDS011;10667;51.056;3.732;2023-05-20T03:36:04;12.70;;;6.47;;
21018;SDS011;10667;51.056;3.732;2023-05-20T03:38:30;16.58;;;7.35;;
21018;SDS011;10667;51.056;3.732;2023-05-20T03:40:56;12.18;;;6.03;;
21018;SDS011;10667;51.056;3.732;2023-05-20T03:43:21;11.07;;;6.10;;
21018;SDS011;10667;51.056;3.732;2023-05-20T03:45:47;11.00;;;6.22;;
21018;SDS011;10667;51.056;3.732;2023-05-20T03:48:13;10.90;;;6.25;;
21018;SDS011;10667;51.056;3.732;2023-05-20T03:50:38;11.63;;;6.32;;
21018;SDS011;10667;51.056;3.732;2023-05-20T03:53:04;13.20;;;5.88;;
21018;SDS011;10667;51.056;3.732;2023-05-20T03:55:29;10.30;;;6.32;;
21018;SDS011;10667;51.056;3.732;2023-05-20T03:57:56;13.05;;;5.93;;
21018;SDS011;10667;51.056;3.732;2023-05-20T04:00:21;12.02;;;6.53;;
21018;SDS011;10667;51.056;3.732;2023-05-20T04:02:48;8.90;;;5.32;;
21018;SDS011;10667;51.056;3.732;2023-05-20T04:05:13;11.77;;;6.18;;
21018;SDS011;10667;51.056;3.732;2023-05-20T04:07:39;7.70;;;6.05;;
21018;SDS011;10667;51.056;3.732;2023-05-20T04:10:05;11.13;;;6.10;;
21018;SDS011;10667;51.056;3.732;2023-05-20T04:12:31;13.85;;;6.60;;
21018;SDS011;10667;51.056;3.732;2023-05-20T04:14:58;13.75;;;6.50;;
21018;SDS011;10667;51.056;3.732;2023-05-20T04:17:27;9.30;;;6.32;;
21018;SDS011;10667;51.056;3.732;2023-05-20T04:19:56;10.32;;;5.75;;
21018;SDS011;10667;51.056;3.732;2023-05-20T04:22:24;12.98;;;6.28;;
21018;SDS011;10667;51.056;3.732;2023-05-20T04:24:50;12.48;;;6.75;;
21018;SDS011;10667;51.056;3.732;2023-05-20T04:27:16;16.00;;;6.60;;
21018;SDS011;10667;51.056;3.732;2023-05-20T04:29:41;11.38;;;6.60;;
21018;SDS011;10667;51.056;3.732;2023-05-20T04:32:13;15.00;;;6.68;;
21018;SDS011;10667;51.056;3.732;2023-05-20T04:34:42;13.35;;;6.78;;
21018;SDS011;10667;51.056;3.732;2023-05-20T04:37:09;10.73;;;6.53;;
21018;SDS011;10667;51.056;3.732;2023-05-20T04:39:37;9.70;;;5.95;;
21018;SDS011;10667;51.056;3.732;2023-05-20T04:42:04;12.27;;;6.65;;
21018;SDS011;10667;51.056;3.732;2023-05-20T04:44:30;10.75;;;6.63;;
21018;SDS011;10667;51.056;3.732;2023-05-20T04:46:56;13.77;;;7.25;;
21018;SDS011;10667;51.056;3.732;2023-05-20T04:49:22;11.85;;;6.60;;
21018;SDS011;10667;51.056;3.732;2023-05-20T04:51:50;13.30;;;6.57;;
21018;SDS011;10667;51.056;3.732;2023-05-20T04:54:16;17.45;;;8.50;;
21018;SDS011;10667;51.056;3.732;2023-05-20T04:56:42;14.32;;;7.10;;
21018;SDS011;10667;51.056;3.732;2023-05-20T04:59:08;11.75;;;7.35;;
21018;SDS011;10667;51.056;3.732;2023-05-20T05:01:34;14.48;;;7.05;;
21018;SDS011;10667;51.056;3.732;2023-05-20T05:04:01;11.32;;;6.75;;
21018;SDS011;10667;51.056;3.732;2023-05-20T05:06:27;11.10;;;7.15;;
21018;SDS011;10667;51.056;3.732;2023-05-20T05:08:53;12.80;;;7.18;;
21018;SDS011;10667;51.056;3.732;2023-05-20T05:11:18;22.52;;;7.18;;
21018;SDS011;10667;51.056;3.732;2023-05-20T05:13:45;12.57;;;6.70;;
21018;SDS011;10667;51.056;3.732;2023-05-20T05:16:11;11.85;;;6.95;;
21018;SDS011;10667;51.056;3.732;2023-05-20T05:18:37;13.35;;;6.82;;
21018;SDS011;10667;51.056;3.732;2023-05-20T05:21:03;11.27;;;6.40;;
21018;SDS011;10667;51.056;3.732;2023-05-20T05:23:29;13.15;;;7.40;;
21018;SDS011;10667;51.056;3.732;2023-05-20T05:25:55;11.52;;;6.22;;
21018;SDS011;10667;51.056;3.732;2023-05-20T05:28:21;15.95;;;6.65;;
21018;SDS011;10667;51.056;3.732;2023-05-20T05:30:48;10.93;;;6.78;;
21018;SDS011;10667;51.056;3.732;2023-05-20T05:33:14;12.18;;;6.50;;
21018;SDS011;10667;51.056;3.732;2023-05-20T05:35:40;11.32;;;6.93;;
21018;SDS011;10667;51.056;3.732;2023-05-20T05:38:06;21.20;;;6.68;;
21018;SDS011;10667;51.056;3.732;2023-05-20T05:40:32;11.88;;;7.18;;
21018;SDS011;10667;51.056;3.732;2023-05-20T05:42:58;11.02;;;7.00;;
21018;SDS011;10667;51.056;3.732;2023-05-20T05:45:23;10.38;;;6.65;;
21018;SDS011;10667;51.056;3.732;2023-05-20T05:47:49;15.10;;;6.53;;
21018;SDS011;10667;51.056;3.732;2023-05-20T05:50:15;15.93;;;7.20;;
21018;SDS011;10667;51.056;3.732;2023-05-20T05:52:41;15.32;;;7.10;;
21018;SDS011;10667;51.056;3.732;2023-05-20T05:55:07;10.95;;;6.82;;
21018;SDS011;10667;51.056;3.732;2023-05-20T05:57:33;12.30;;;7.13;;
21018;SDS011;10667;51.056;3.732;2023-05-20T05:59:59;9.02;;;7.05;;
21018;SDS011;10667;51.056;3.732;2023-05-20T06:02:25;11.90;;;6.32;;
21018;SDS011;10667;51.056;3.732;2023-05-20T06:04:51;12.18;;;6.97;;
21018;SDS011;10667;51.056;3.732;2023-05-20T06:07:16;13.90;;;6.53;;
21018;SDS011;10667;51.056;3.732;2023-05-20T06:09:42;14.27;;;7.47;;
21018;SDS011;10667;51.056;3.732;2023-05-20T06:12:08;13.10;;;6.50;;
21018;SDS011;10667;51.056;3.732;2023-05-20T06:14:34;10.52;;;6.05;;
21018;SDS011;10667;51.056;3.732;2023-05-20T06:17:00;10.98;;;7.45;;
21018;SDS011;10667;51.056;3.732;2023-05-20T06:19:26;9.32;;;7.00;;
21018;SDS011;10667;51.056;3.732;2023-05-20T06:21:52;11.88;;;7.30;;
21018;SDS011;10667;51.056;3.732;2023-05-20T06:24:17;11.07;;;7.22;;
21018;SDS011;10667;51.056;3.732;2023-05-20T06:26:43;12.27;;;7.60;;
21018;SDS011;10667;51.056;3.732;2023-05-20T06:29:10;10.40;;;7.32;;
21018;SDS011;10667;51.056;3.732;2023-05-20T06:31:36;14.60;;;7.03;;
21018;SDS011;10667;51.056;3.732;2023-05-20T06:34:01;12.18;;;6.70;;
21018;SDS011;10667;51.056;3.732;2023-05-20T06:36:27;13.98;;;7.20;;
21018;SDS011;10667;51.056;3.732;2023-05-20T06:38:53;13.00;;;6.47;;
21018;SDS011;10667;51.056;3.732;2023-05-20T06:41:18;10.15;;;7.03;;
21018;SDS011;10667;51.056;3.732;2023-05-20T06:43:46;9.63;;;6.30;;
21018;SDS011;10667;51.056;3.732;2023-05-20T06:46:12;9.73;;;7.25;;
21018;SDS011;10667;51.056;3.732;2023-05-20T06:48:38;9.55;;;5.97;;
21018;SDS011;10667;51.056;3.732;2023-05-20T06:51:06;13.52;;;7.65;;
21018;SDS011;10667;51.056;3.732;2023-05-20T06:53:33;13.35;;;6.75;;
21018;SDS011;10667;51.056;3.732;2023-05-20T06:55:59;13.50;;;7.15;;
21018;SDS011;10667;51.056;3.732;2023-05-20T06:58:25;9.43;;;6.45;;
21018;SDS011;10667;51.056;3.732;2023-05-20T07:00:52;10.35;;;6.43;;
21018;SDS011;10667;51.056;3.732;2023-05-20T07:03:18;12.90;;;7.18;;
21018;SDS011;10667;51.056;3.732;2023-05-20T07:05:43;12.82;;;7.25;;
21018;SDS011;10667;51.056;3.732;2023-05-20T07:08:09;14.00;;;6.70;;
21018;SDS011;10667;51.056;3.732;2023-05-20T07:10:35;8.88;;;6.50;;
21018;SDS011;10667;51.056;3.732;2023-05-20T07:13:01;13.25;;;6.55;;
21018;SDS011;10667;51.056;3.732;2023-05-20T07:15:26;10.00;;;6.53;;
21018;SDS011;10667;51.056;3.732;2023-05-20T07:17:52;11.15;;;6.70;;
21018;SDS011;10667;51.056;3.732;2023-05-20T07:20:18;11.18;;;6.13;;
21018;SDS011;10667;51.056;3.732;2023-05-20T07:22:43;9.60;;;6.55;;
21018;SDS011;10667;51.056;3.732;2023-05-20T07:25:09;16.35;;;6.18;;
21018;SDS011;10667;51.056;3.732;2023-05-20T07:27:35;10.25;;;6.70;;
21018;SDS011;10667;51.056;3.732;2023-05-20T07:30:01;8.38;;;5.47;;
21018;SDS011;10667;51.056;3.732;2023-05-20T07:32:27;9.43;;;5.85;;
21018;SDS011;10667;51.056;3.732;2023-05-20T07:34:53;17.02;;;6.85;;
21018;SDS011;10667;51.056;3.732;2023-05-20T07:37:18;10.07;;;6.47;;
21018;SDS011;10667;51.056;3.732;2023-05-20T07:39:44;7.70;;;5.93;;
21018;SDS011;10667;51.056;3.732;2023-05-20T07:42:10;12.15;;;6.03;;
21018;SDS011;10667;51.056;3.732;2023-05-20T07:44:35;12.52;;;5.75;;
21018;SDS011;10667;51.056;3.732;2023-05-20T07:47:01;10.27;;;5.78;;
21018;SDS011;10667;51.056;3.732;2023-05-20T07:49:27;12.05;;;6.22;;
21018;SDS011;10667;51.056;3.732;2023-05-20T07:51:53;11.98;;;5.93;;
21018;SDS011;10667;51.056;3.732;2023-05-20T07:54:18;10.68;;;5.68;;
21018;SDS011;10667;51.056;3.732;2023-05-20T07:56:44;10.23;;;5.38;;
21018;SDS011;10667;51.056;3.732;2023-05-20T07:59:10;9.30;;;5.20;;
21018;SDS011;10667;51.056;3.732;2023-05-20T08:01:35;9.65;;;5.80;;
21018;SDS011;10667;51.056;3.732;2023-05-20T08:04:02;11.20;;;6.50;;
21018;SDS011;10667;51.056;3.732;2023-05-20T08:06:27;11.68;;;6.38;;
21018;SDS011;10667;51.056;3.732;2023-05-20T08:08:53;10.60;;;6.22;;
21018;SDS011;10667;51.056;3.732;2023-05-20T08:11:19;9.80;;;5.38;;
21018;SDS011;10667;51.056;3.732;2023-05-20T08:13:47;10.02;;;5.50;;
21018;SDS011;10667;51.056;3.732;2023-05-20T08:16:14;9.50;;;5.82;;
21018;SDS011;10667;51.056;3.732;2023-05-20T08:18:40;10.02;;;5.32;;
21018;SDS011;10667;51.056;3.732;2023-05-20T08:21:05;9.23;;;5.70;;
21018;SDS011;10667;51.056;3.732;2023-05-20T08:23:34;8.27;;;5.55;;
21018;SDS011;10667;51.056;3.732;2023-05-20T08:26:01;10.02;;;5.55;;
21018;SDS011;10667;51.056;3.732;2023-05-20T08:28:27;8.50;;;5.05;;
21018;SDS011;10667;51.056;3.732;2023-05-20T08:30:53;7.65;;;5.45;;
21018;SDS011;10667;51.056;3.732;2023-05-20T08:33:19;10.25;;;5.30;;
21018;SDS011;10667;51.056;3.732;2023-05-20T08:35:46;8.90;;;5.85;;
21018;SDS011;10667;51.056;3.732;2023-05-20T08:38:12;9.77;;;5.43;;
21018;SDS011;10667;51.056;3.732;2023-05-20T08:40:38;9.30;;;5.10;;
21018;SDS011;10667;51.056;3.732;2023-05-20T08:43:03;7.55;;;5.20;;
21018;SDS011;10667;51.056;3.732;2023-05-20T08:45:32;8.27;;;5.22;;
21018;SDS011;10667;51.056;3.732;2023-05-20T08:48:01;8.77;;;4.80;;
21018;SDS011;10667;51.056;3.732;2023-05-20T08:50:29;8.80;;;5.50;;
21018;SDS011;10667;51.056;3.732;2023-05-20T08:52:55;8.32;;;5.22;;
21018;SDS011;10667;51.056;3.732;2023-05-20T08:55:25;7.63;;;4.93;;
21018;SDS011;10667;51.056;3.732;2023-05-20T08:58:06;8.55;;;4.95;;
21018;SDS011;10667;51.056;3.732;2023-05-20T09:00:32;10.68;;;4.78;;
21018;SDS011;10667;51.056;3.732;2023-05-20T09:02:58;7.10;;;4.10;;
21018;SDS011;10667;51.056;3.732;2023-05-20T09:05:25;7.28;;;4.70;;
21018;SDS011;10667;51.056;3.732;2023-05-20T09:07:51;6.35;;;4.20;;
21018;SDS011;10667;51.056;3.732;2023-05-20T09:10:17;5.57;;;4.00;;
21018;SDS011;10667;51.056;3.732;2023-05-20T09:12:44;9.15;;;5.10;;
21018;SDS011;10667;51.056;3.732;2023-05-20T09:15:09;8.40;;;4.00;;
21018;SDS011;10667;51.056;3.732;2023-05-20T09:17:35;8.18;;;4.70;;
21018;SDS011;10667;51.056;3.732;2023-05-20T09:20:11;8.82;;;4.72;;
21018;SDS011;10667;51.056;3.732;2023-05-20T09:22:38;9.23;;;4.85;;
21018;SDS011;10667;51.056;3.732;2023-05-20T09:25:04;8.23;;;4.60;;
21018;SDS011;10667;51.056;3.732;2023-05-20T09:27:30;11.32;;;4.63;;
21018;SDS011;10667;51.056;3.732;2023-05-20T09:29:56;11.02;;;5.60;;
21018;SDS011;10667;51.056;3.732;2023-05-20T09:32:22;10.05;;;4.72;;
21018;SDS011;10667;51.056;3.732;2023-05-20T09:34:50;10.98;;;5.32;;
21018;SDS011;10667;51.056;3.732;2023-05-20T09:37:16;8.70;;;4.78;;
21018;SDS011;10667;51.056;3.732;2023-05-20T09:42:24;11.40;;;5.55;;
21018;SDS011;10667;51.056;3.732;2023-05-20T09:44:56;12.60;;;5.57;;
21018;SDS011;10667;51.056;3.732;2023-05-20T09:47:22;8.75;;;5.53;;
21018;SDS011;10667;51.056;3.732;2023-05-20T09:49:51;9.90;;;5.95;;
21018;SDS011;10667;51.056;3.732;2023-05-20T09:52:18;9.05;;;4.85;;
21018;SDS011;10667;51.056;3.732;2023-05-20T09:54:44;9.10;;;5.32;;
21018;SDS011;10667;51.056;3.732;2023-05-20T09:57:11;11.70;;;5.20;;
21018;SDS011;10667;51.056;3.732;2023-05-20T09:59:39;9.10;;;4.85;;
21018;SDS011;10667;51.056;3.732;2023-05-20T10:02:06;9.05;;;3.72;;
21018;SDS011;10667;51.056;3.732;2023-05-20T10:04:33;7.05;;;3.95;;
21018;SDS011;10667;51.056;3.732;2023-05-20T10:09:59;9.32;;;4.35;;
21018;SDS011;10667;51.056;3.732;2023-05-20T10:13:24;8.00;;;4.30;;
21018;SDS011;10667;51.056;3.732;2023-05-20T10:24:36;10.02;;;3.50;;
21018;SDS011;10667;51.056;3.732;2023-05-20T10:27:11;6.63;;;3.83;;
21018;SDS011;10667;51.056;3.732;2023-05-20T10:32:25;10.90;;;3.70;;
21018;SDS011;10667;51.056;3.732;2023-05-20T10:34:59;15.98;;;4.40;;
21018;SDS011;10667;51.056;3.732;2023-05-20T10:37:26;9.65;;;3.88;;
21018;SDS011;10667;51.056;3.732;2023-05-20T10:40:04;8.98;;;4.13;;
21018;SDS011;10667;51.056;3.732;2023-05-20T10:42:31;9.32;;;3.88;;
21018;SDS011;10667;51.056;3.732;2023-05-20T10:44:57;9.40;;;4.05;;
21018;SDS011;10667;51.056;3.732;2023-05-20T10:47:22;7.57;;;3.60;;
21018;SDS011;10667;51.056;3.732;2023-05-20T10:49:48;8.98;;;4.50;;
21018;SDS011;10667;51.056;3.732;2023-05-20T10:52:14;7.78;;;3.83;;
21018;SDS011;10667;51.056;3.732;2023-05-20T10:54:45;6.40;;;4.22;;
21018;SDS011;10667;51.056;3.732;2023-05-20T10:57:19;8.35;;;3.80;;
21018;SDS011;10667;51.056;3.732;2023-05-20T10:59:45;9.93;;;4.20;;
21018;SDS011;10667;51.056;3.732;2023-05-20T11:02:12;5.00;;;3.75;;
21018;SDS011;10667;51.056;3.732;2023-05-20T11:04:43;6.38;;;4.25;;
21018;SDS011;10667;51.056;3.732;2023-05-20T11:07:09;9.35;;;4.28;;
21018;SDS011;10667;51.056;3.732;2023-05-20T11:09:34;9.60;;;3.80;;
21018;SDS011;10667;51.056;3.732;2023-05-20T11:12:00;7.57;;;4.00;;
21018;SDS011;10667;51.056;3.732;2023-05-20T11:14:29;6.75;;;4.50;;
21018;SDS011;10667;51.056;3.732;2023-05-20T11:16:56;10.35;;;3.80;;
21018;SDS011;10667;51.056;3.732;2023-05-20T11:19:23;8.82;;;3.72;;
21018;SDS011;10667;51.056;3.732;2023-05-20T11:21:50;8.18;;;4.78;;
21018;SDS011;10667;51.056;3.732;2023-05-20T11:24:23;6.05;;;3.75;;
21018;SDS011;10667;51.056;3.732;2023-05-20T11:26:51;6.50;;;3.33;;
21018;SDS011;10667;51.056;3.732;2023-05-20T11:29:17;9.10;;;3.90;;
21018;SDS011;10667;51.056;3.732;2023-05-20T11:31:44;12.55;;;4.93;;
21018;SDS011;10667;51.056;3.732;2023-05-20T11:34:11;9.00;;;4.50;;
21018;SDS011;10667;51.056;3.732;2023-05-20T11:36:43;4.72;;;3.05;;
21018;SDS011;10667;51.056;3.732;2023-05-20T11:39:09;8.55;;;3.78;;
21018;SDS011;10667;51.056;3.732;2023-05-20T11:41:37;8.32;;;3.80;;
21018;SDS011;10667;51.056;3.732;2023-05-20T11:44:03;5.45;;;3.70;;
21018;SDS011;10667;51.056;3.732;2023-05-20T11:46:29;5.07;;;3.60;;
21018;SDS011;10667;51.056;3.732;2023-05-20T11:48:55;7.22;;;3.95;;
21018;SDS011;10667;51.056;3.732;2023-05-20T11:51:24;7.65;;;3.83;;
21018;SDS011;10667;51.056;3.732;2023-05-20T11:53:51;5.78;;;3.67;;
21018;SDS011;10667;51.056;3.732;2023-05-20T11:56:17;14.30;;;4.32;;
21018;SDS011;10667;51.056;3.732;2023-05-20T11:58:42;7.07;;;3.90;;
21018;SDS011;10667;51.056;3.732;2023-05-20T12:01:09;8.88;;;4.10;;
21018;SDS011;10667;51.056;3.732;2023-05-20T12:03:35;5.85;;;2.88;;
21018;SDS011;10667;51.056;3.732;2023-05-20T12:06:01;6.25;;;2.97;;
21018;SDS011;10667;51.056;3.732;2023-05-20T12:08:27;8.82;;;3.22;;
21018;SDS011;10667;51.056;3.732;2023-05-20T12:10:53;6.43;;;3.00;;
21018;SDS011;10667;51.056;3.732;2023-05-20T12:13:19;8.48;;;3.33;;
21018;SDS011;10667;51.056;3.732;2023-05-20T12:15:45;6.32;;;3.38;;
21018;SDS011;10667;51.056;3.732;2023-05-20T12:18:10;5.47;;;2.60;;
21018;SDS011;10667;51.056;3.732;2023-05-20T12:20:36;7.47;;;3.08;;
21018;SDS011;10667;51.056;3.732;2023-05-20T12:23:02;7.40;;;3.10;;
21018;SDS011;10667;51.056;3.732;2023-05-20T12:25:28;4.70;;;2.80;;
21018;SDS011;10667;51.056;3.732;2023-05-20T12:27:54;9.68;;;3.05;;
21018;SDS011;10667;51.056;3.732;2023-05-20T12:30:21;5.13;;;2.83;;
21018;SDS011;10667;51.056;3.732;2023-05-20T12:32:47;6.55;;;3.30;;
21018;SDS011;10667;51.056;3.732;2023-05-20T12:35:23;8.68;;;3.00;;
21018;SDS011;10667;51.056;3.732;2023-05-20T12:38:02;4.00;;;2.70;;
21018;SDS011;10667;51.056;3.732;2023-05-20T12:40:28;3.65;;;3.05;;
21018;SDS011;10667;51.056;3.732;2023-05-20T12:42:53;9.65;;;3.47;;
21018;SDS011;10667;51.056;3.732;2023-05-20T12:45:19;9.30;;;3.17;;
21018;SDS011;10667;51.056;3.732;2023-05-20T12:47:44;6.28;;;3.80;;
21018;SDS011;10667;51.056;3.732;2023-05-20T12:50:10;6.50;;;3.65;;
21018;SDS011;10667;51.056;3.732;2023-05-20T12:52:36;9.48;;;4.03;;
21018;SDS011;10667;51.056;3.732;2023-05-20T12:55:01;9.90;;;3.45;;
21018;SDS011;10667;51.056;3.732;2023-05-20T12:57:29;6.93;;;3.60;;
21018;SDS011;10667;51.056;3.732;2023-05-20T12:59:55;5.35;;;3.22;;
21018;SDS011;10667;51.056;3.732;2023-05-20T13:02:20;4.63;;;3.15;;
21018;SDS011;10667;51.056;3.732;2023-05-20T13:04:46;5.75;;;3.42;;
21018;SDS011;10667;51.056;3.732;2023-05-20T13:07:12;4.50;;;3.53;;
21018;SDS011;10667;51.056;3.732;2023-05-20T13:09:37;6.25;;;3.25;;
21018;SDS011;10667;51.056;3.732;2023-05-20T13:12:03;7.78;;;4.00;;
21018;SDS011;10667;51.056;3.732;2023-05-20T13:14:29;8.00;;;3.33;;
21018;SDS011;10667;51.056;3.732;2023-05-20T13:16:55;4.70;;;3.60;;
21018;SDS011;10667;51.056;3.732;2023-05-20T13:19:21;7.57;;;2.85;;
21018;SDS011;10667;51.056;3.732;2023-05-20T13:21:50;6.40;;;3.00;;
21018;SDS011;10667;51.056;3.732;2023-05-20T13:24:18;7.18;;;2.83;;
21018;SDS011;10667;51.056;3.732;2023-05-20T13:26:44;8.82;;;2.88;;
21018;SDS011;10667;51.056;3.732;2023-05-20T13:29:10;7.22;;;2.60;;
21018;SDS011;10667;51.056;3.732;2023-05-20T13:31:36;5.88;;;3.10;;
21018;SDS011;10667;51.056;3.732;2023-05-20T13:34:02;6.38;;;3.30;;
21018;SDS011;10667;51.056;3.732;2023-05-20T13:36:28;8.02;;;2.80;;
21018;SDS011;10667;51.056;3.732;2023-05-20T13:38:55;23.88;;;3.08;;
21018;SDS011;10667;51.056;3.732;2023-05-20T13:41:20;9.35;;;3.55;;
21018;SDS011;10667;51.056;3.732;2023-05-20T13:43:47;4.18;;;3.13;;
21018;SDS011;10667;51.056;3.732;2023-05-20T13:46:13;3.78;;;2.60;;
21018;SDS011;10667;51.056;3.732;2023-05-20T13:48:39;4.32;;;3.00;;
21018;SDS011;10667;51.056;3.732;2023-05-20T13:51:05;4.72;;;2.45;;
21018;SDS011;10667;51.056;3.732;2023-05-20T13:53:31;11.15;;;3.15;;
21018;SDS011;10667;51.056;3.732;2023-05-20T13:55:56;6.60;;;3.33;;
21018;SDS011;10667;51.056;3.732;2023-05-20T13:58:22;7.90;;;3.72;;
21018;SDS011;10667;51.056;3.732;2023-05-20T14:00:48;7.40;;;2.88;;
21018;SDS011;10667;51.056;3.732;2023-05-20T14:03:14;7.95;;;3.50;;
21018;SDS011;10667;51.056;3.732;2023-05-20T14:05:40;4.78;;;3.00;;
21018;SDS011;10667;51.056;3.732;2023-05-20T14:08:06;6.25;;;2.53;;
21018;SDS011;10667;51.056;3.732;2023-05-20T14:10:32;4.90;;;3.40;;
21018;SDS011;10667;51.056;3.732;2023-05-20T14:12:57;5.72;;;2.80;;
21018;SDS011;10667;51.056;3.732;2023-05-20T14:15:24;8.05;;;2.85;;
21018;SDS011;10667;51.056;3.732;2023-05-20T14:17:50;5.38;;;2.25;;
21018;SDS011;10667;51.056;3.732;2023-05-20T14:20:15;5.38;;;2.60;;
21018;SDS011;10667;51.056;3.732;2023-05-20T14:22:41;7.32;;;3.03;;
21018;SDS011;10667;51.056;3.732;2023-05-20T14:25:07;3.50;;;3.10;;
21018;SDS011;10667;51.056;3.732;2023-05-20T14:27:33;5.68;;;3.33;;
21018;SDS011;10667;51.056;3.732;2023-05-20T14:29:58;5.63;;;3.22;;
21018;SDS011;10667;51.056;3.732;2023-05-20T14:32:24;6.22;;;3.85;;
21018;SDS011;10667;51.056;3.732;2023-05-20T14:34:50;5.75;;;3.72;;
21018;SDS011;10667;51.056;3.732;2023-05-20T14:37:17;7.13;;;3.03;;
21018;SDS011;10667;51.056;3.732;2023-05-20T14:39:43;6.18;;;3.10;;
21018;SDS011;10667;51.056;3.732;2023-05-20T14:42:10;4.70;;;2.80;;
21018;SDS011;10667;51.056;3.732;2023-05-20T14:44:35;5.82;;;4.03;;
21018;SDS011;10667;51.056;3.732;2023-05-20T14:47:01;4.90;;;3.58;;
21018;SDS011;10667;51.056;3.732;2023-05-20T14:49:27;7.60;;;3.63;;
21018;SDS011;10667;51.056;3.732;2023-05-20T14:51:53;5.85;;;3.67;;
21018;SDS011;10667;51.056;3.732;2023-05-20T14:54:19;5.28;;;4.32;;